Aviation Digital Data Service (ADDS)

Output produced by TAFs form (2353 UTC 19 October 2017)
found at http://aviationweather.gov/adds/tafs/
 
KMTJ 192323Z 2000/2024 33006KT P6SM SCT110 BKN200 
     FM200200 15006KT P6SM SCT110 BKN200 
     FM201700 20012KT P6SM SKC 
     FM201900 22016G27KT P6SM FEW090 FEW250